createdAt,value
2022-10-12T00:03:40.105Z,3.67
2022-10-12T00:08:46.155Z,3.38
2022-10-12T00:13:49.509Z,3.15
2022-10-12T00:18:53.925Z,2.97
2022-10-12T00:24:00.783Z,3.25
2022-10-12T00:29:05.128Z,3.03
2022-10-12T00:34:08.385Z,2.80
2022-10-12T00:39:13.177Z,2.88
2022-10-12T00:44:37.698Z,2.95
2022-10-12T00:49:41.697Z,3.05
2022-10-12T00:54:49.073Z,2.85
2022-10-12T00:59:55.883Z,3.22
2022-10-12T01:04:59.983Z,3.33
2022-10-12T01:10:05.440Z,2.83
2022-10-12T01:15:09.814Z,2.90
2022-10-12T01:20:38.306Z,3.20
2022-10-12T01:26:01.601Z,3.20
2022-10-12T01:31:12.546Z,2.85
2022-10-12T01:36:20.651Z,2.85
2022-10-12T01:41:28.113Z,3.13
2022-10-12T01:46:42.583Z,3.33
2022-10-12T01:51:54.870Z,3.08
2022-10-12T01:57:04.933Z,3.00
2022-10-12T02:02:19.183Z,3.08
2022-10-12T02:07:30.358Z,3.00
2022-10-12T02:12:35.514Z,2.85
2022-10-12T02:17:42.976Z,3.20
2022-10-12T02:22:49.141Z,2.72
2022-10-12T02:27:57.577Z,3.28
2022-10-12T02:33:09.496Z,3.33
2022-10-12T02:38:17.320Z,2.95
2022-10-12T02:43:26.655Z,2.95
2022-10-12T02:48:31.578Z,3.50
2022-10-12T02:53:35.047Z,3.40
2022-10-12T02:58:38.598Z,2.92
2022-10-12T03:03:43.526Z,3.30
2022-10-12T03:08:46.733Z,2.70
2022-10-12T03:13:52.901Z,2.60
2022-10-12T03:18:57.819Z,2.63
2022-10-12T03:24:01.095Z,2.25
2022-10-12T03:29:04.726Z,3.58
2022-10-12T03:34:09.669Z,2.65
2022-10-12T03:39:13.345Z,2.47
2022-10-12T03:44:16.838Z,2.40
2022-10-12T03:49:21.472Z,2.22
2022-10-12T03:54:24.745Z,2.85
2022-10-12T03:59:27.977Z,2.65
2022-10-12T04:04:32.972Z,3.10
2022-10-12T04:09:36.288Z,2.45
2022-10-12T04:14:39.516Z,2.40
2022-10-12T04:19:44.455Z,2.40
2022-10-12T04:24:47.759Z,1.88
2022-10-12T04:29:51.134Z,2.10
2022-10-12T04:34:56.060Z,2.03
2022-10-12T04:39:59.238Z,2.60
2022-10-12T04:45:02.418Z,2.15
2022-10-12T04:50:08.233Z,2.20
2022-10-12T04:55:11.515Z,2.30
2022-10-12T05:00:15.670Z,2.20
2022-10-12T05:05:20.286Z,2.28
2022-10-12T05:10:23.672Z,2.42
2022-10-12T05:15:27.420Z,2.45
2022-10-12T05:20:32.007Z,3.30
2022-10-12T05:25:36.691Z,2.25
2022-10-12T05:30:40.916Z,2.40
2022-10-12T05:35:48.310Z,2.33
2022-10-12T05:40:57.718Z,2.55
2022-10-12T05:46:03.446Z,2.75
2022-10-12T05:51:08.553Z,2.15
2022-10-12T05:56:12.136Z,2.30
2022-10-12T06:01:15.547Z,2.50
2022-10-12T06:06:20.291Z,2.10
2022-10-12T06:11:23.728Z,2.38
2022-10-12T06:16:27.183Z,1.90
2022-10-12T06:21:34.201Z,2.20
2022-10-12T06:26:37.895Z,1.90
2022-10-12T06:31:41.173Z,1.95
2022-10-12T06:36:46.407Z,2.00
2022-10-12T06:41:49.638Z,2.38
2022-10-12T06:46:55.873Z,2.30
2022-10-12T06:52:00.553Z,2.03
2022-10-12T06:57:03.820Z,2.10
2022-10-12T07:02:07.247Z,1.75
2022-10-12T07:07:11.890Z,2.08
2022-10-12T07:12:15.232Z,2.13
2022-10-12T07:17:18.666Z,2.15
2022-10-12T07:22:23.412Z,2.13
2022-10-12T07:27:26.693Z,2.13
2022-10-12T07:32:30.097Z,2.10
2022-10-12T07:37:34.764Z,1.88
2022-10-12T07:42:53.752Z,1.70
2022-10-12T07:48:01.310Z,1.50
2022-10-12T07:53:06.071Z,1.95
2022-10-12T07:58:10.060Z,1.75
2022-10-12T08:03:13.360Z,2.25
2022-10-12T08:08:18.027Z,1.85
2022-10-12T08:13:21.312Z,1.92
2022-10-12T08:18:24.970Z,2.30
2022-10-12T08:23:30.370Z,2.58
2022-10-12T08:28:34.026Z,2.03
2022-10-12T08:33:37.436Z,2.63
2022-10-12T08:38:43.761Z,1.88
2022-10-12T08:44:08.775Z,2.22
2022-10-12T08:49:16.573Z,1.85
2022-10-12T08:54:26.059Z,2.10
2022-10-12T08:59:33.598Z,2.22
2022-10-12T09:04:50.928Z,2.90
2022-10-12T09:10:03.732Z,2.10
2022-10-12T09:15:14.533Z,2.55
2022-10-12T09:20:21.746Z,1.90
2022-10-12T09:25:28.476Z,2.03
2022-10-12T09:30:32.161Z,2.17
2022-10-12T09:35:35.840Z,2.53
2022-10-12T09:40:41.233Z,2.42
2022-10-12T09:45:45.204Z,2.67
2022-10-12T09:50:54.849Z,2.25
2022-10-12T09:56:03.781Z,2.08
2022-10-12T10:01:19.456Z,2.38
2022-10-12T10:06:26.705Z,2.30
2022-10-12T10:11:32.759Z,2.00
2022-10-12T10:16:47.580Z,1.70
2022-10-12T10:21:51.069Z,1.67
2022-10-12T10:26:58.481Z,1.90
2022-10-12T10:32:12.215Z,2.33
2022-10-12T10:37:23.184Z,2.47
2022-10-12T10:42:31.633Z,2.20
2022-10-12T10:47:43.043Z,2.08
2022-10-12T10:52:57.008Z,1.98
2022-10-12T10:58:06.435Z,1.77
2022-10-12T11:03:17.320Z,1.95
2022-10-12T11:08:25.947Z,2.38
2022-10-12T11:13:35.683Z,2.30
2022-10-12T11:18:44.831Z,1.90
2022-10-12T11:23:52.986Z,2.03
2022-10-12T11:29:00.501Z,1.70
2022-10-12T11:34:12.633Z,2.00
2022-10-12T11:39:22.846Z,1.75
2022-10-12T11:44:36.157Z,1.98
2022-10-12T11:49:49.431Z,1.77
2022-10-12T11:55:00.822Z,1.85
2022-10-12T12:00:08.539Z,1.80
2022-10-12T12:05:18.294Z,2.08
2022-10-12T12:11:04.526Z,1.88
2022-10-12T12:16:34.066Z,1.70
2022-10-12T12:22:18.984Z,1.55
2022-10-12T12:27:25.334Z,1.48
2022-10-12T12:32:44.632Z,1.77
2022-10-12T12:37:48.291Z,1.48
2022-10-12T12:42:51.619Z,1.75
2022-10-12T12:47:56.256Z,1.90
2022-10-12T12:53:06.236Z,1.85
2022-10-12T12:58:39.872Z,1.88
2022-10-12T13:04:05.806Z,2.10
2022-10-12T13:09:28.881Z,1.77
2022-10-12T13:14:49.741Z,2.05
2022-10-12T13:19:57.253Z,1.75
2022-10-12T13:25:03.558Z,1.50
2022-10-12T13:30:14.633Z,1.77
2022-10-12T13:35:32.106Z,2.30
2022-10-12T13:40:39.073Z,1.55
2022-10-12T13:45:46.786Z,1.88
2022-10-12T13:50:56.293Z,2.50
2022-10-12T13:56:05.182Z,2.50
2022-10-12T14:01:11.362Z,2.15
2022-10-12T14:06:29.908Z,3.58
2022-10-12T14:11:33.792Z,2.50
2022-10-12T14:16:37.188Z,2.22
2022-10-12T14:21:47.980Z,2.25
2022-10-12T14:26:56.042Z,2.20
2022-10-12T14:32:00.953Z,2.15
2022-10-12T14:37:07.866Z,2.28
2022-10-12T14:42:20.986Z,2.25
2022-10-12T14:47:26.671Z,2.53
2022-10-12T14:52:38.298Z,2.05
2022-10-12T14:57:41.527Z,2.75
2022-10-12T15:02:45.595Z,2.75
2022-10-12T15:07:51.231Z,2.47
2022-10-12T15:12:55.011Z,2.50
2022-10-12T15:17:58.929Z,2.65
2022-10-12T15:23:04.534Z,2.70
2022-10-12T15:28:07.763Z,2.80
2022-10-12T15:33:12.678Z,2.80
2022-10-12T15:38:17.689Z,3.03
2022-10-12T15:43:21.548Z,3.30
2022-10-12T15:48:25.030Z,2.97
2022-10-12T15:53:29.712Z,2.65
2022-10-12T15:58:32.953Z,3.25
2022-10-12T16:03:36.575Z,3.00
2022-10-12T16:08:41.479Z,3.40
2022-10-12T16:13:51.113Z,2.92
2022-10-12T16:18:57.417Z,3.25
2022-10-12T16:24:02.078Z,3.50
2022-10-12T16:29:05.573Z,3.60
2022-10-12T16:34:08.804Z,3.00
2022-10-12T16:39:13.429Z,4.10
2022-10-12T16:44:16.722Z,3.63
2022-10-12T16:49:20.022Z,3.65
2022-10-12T16:54:25.795Z,4.18
2022-10-12T16:59:29.155Z,4.25
2022-10-12T17:04:32.792Z,4.00
2022-10-12T17:09:37.549Z,4.32
2022-10-12T17:14:41.041Z,4.03
2022-10-12T17:19:44.569Z,2.60
2022-10-12T17:24:49.300Z,4.07
2022-10-12T17:29:53.073Z,4.55
2022-10-12T17:34:57.877Z,5.00
2022-10-12T17:40:03.189Z,5.07
2022-10-12T17:45:08.847Z,4.60
2022-10-12T17:50:12.262Z,4.55
2022-10-12T17:55:43.412Z,4.63
2022-10-12T18:00:42.107Z,4.35
2022-10-12T18:05:46.037Z,4.03
2022-10-12T18:10:51.475Z,3.83
2022-10-12T18:15:57.011Z,4.22
2022-10-12T18:21:01.367Z,4.25
2022-10-12T18:26:08.439Z,4.03
2022-10-12T18:31:19.469Z,4.13
2022-10-12T18:36:25.706Z,4.63
2022-10-12T18:41:32.392Z,3.95
2022-10-12T18:46:38.016Z,4.68
2022-10-12T18:51:46.226Z,4.93
2022-10-12T18:56:52.205Z,4.55
2022-10-12T19:01:57.155Z,5.20
2022-10-12T19:07:02.243Z,4.72
2022-10-12T19:12:09.288Z,5.63
2022-10-12T19:17:15.011Z,5.03
2022-10-12T19:22:20.079Z,4.75
2022-10-12T19:27:26.414Z,4.72
2022-10-12T19:32:31.024Z,4.97
2022-10-12T19:37:36.632Z,5.10
2022-10-12T19:42:42.636Z,4.53
2022-10-12T19:47:46.664Z,5.20
2022-10-12T19:52:51.627Z,5.13
2022-10-12T19:57:58.800Z,5.30
2022-10-12T20:03:05.839Z,4.30
2022-10-12T20:08:10.882Z,5.65
2022-10-12T20:13:16.337Z,5.00
2022-10-12T20:18:20.271Z,5.10
2022-10-12T20:23:24.579Z,5.53
2022-10-12T20:28:29.500Z,4.78
2022-10-12T20:33:32.926Z,5.32
2022-10-12T20:38:36.169Z,4.70
2022-10-12T20:43:41.902Z,4.38
2022-10-12T20:48:45.982Z,4.72
2022-10-12T20:53:50.898Z,4.40
2022-10-12T20:58:56.308Z,4.45
2022-10-12T21:03:59.796Z,4.38
2022-10-12T21:09:03.060Z,5.72
2022-10-12T21:14:08.318Z,5.15
2022-10-12T21:19:15.633Z,4.95
2022-10-12T21:24:19.398Z,4.93
2022-10-12T21:29:24.168Z,4.63
2022-10-12T21:34:27.579Z,4.38
2022-10-12T21:39:30.999Z,4.18
2022-10-12T21:44:36.753Z,4.18
2022-10-12T21:49:40.148Z,3.90
2022-10-12T21:54:43.396Z,3.22
2022-10-12T21:59:49.366Z,2.72
2022-10-12T22:04:52.627Z,3.25
2022-10-12T22:09:55.879Z,3.00
2022-10-12T22:15:00.471Z,3.10
2022-10-12T22:20:05.210Z,3.00
2022-10-12T22:25:09.363Z,3.00
2022-10-12T22:30:15.502Z,3.35
2022-10-12T22:35:18.811Z,3.30
2022-10-12T22:40:22.177Z,3.42
2022-10-12T22:45:28.215Z,3.17
2022-10-12T22:50:31.611Z,2.70
2022-10-12T22:55:37.055Z,2.92
2022-10-12T23:00:41.979Z,2.42
2022-10-12T23:05:49.657Z,2.55
2022-10-12T23:10:52.877Z,2.38
2022-10-12T23:16:01.497Z,2.83
2022-10-12T23:21:06.159Z,2.55
2022-10-12T23:26:12.049Z,2.78
2022-10-12T23:31:19.520Z,2.75
2022-10-12T23:36:23.089Z,3.08
2022-10-12T23:41:26.555Z,2.80
2022-10-12T23:46:31.133Z,3.13
2022-10-12T23:51:35.208Z,3.20
2022-10-12T23:56:38.538Z,2.97
